Terminal Aerodrome Forecast
Issued by NWS

Home | Current Version | Previous Version | Text Only | Print | Product List | Glossary On
Versions: 1 2 3 4 5 6 7 8 9 10 11 12 13 14 15 16 17 18 19 20 21 22 23 24 25 26 27 28
000
FTUS46 KMTR 240500
TAFSFO
TAF
KSFO 240539Z 2406/2512 29013KT P6SM FEW013 SCT200
     FM241100 27007KT P6SM BKN012 OVC025
     FM241700 30009KT P6SM SCT025 SCT150
     FM242000 28019G25KT P6SM SCT025 BKN150
     FM250200 27015KT P6SM FEW015 BKN200
     FM250400 27010KT P6SM FEW015 OVC025=

USA.gov is the U.S. government's official web portal to all federal, state and local government web resources and services.